Time,TemperatureF,DewpointF,PressureIn,WindDirection,WindDirectionDegrees,WindSpeedMPH,WindSpeedGustMPH,Humidity,HourlyPrecipIn,Conditions,Clouds,dailyrainin,SoftwareType,DateUTC
2013-04-24 05:50:00,36.3,35.0,30.14,WSW,253,0.0,1.0,95,0.00,,,0.03,Wunderground v.1.15,2013-04-24 10:50:00,
2013-04-24 05:55:00,36.3,35.0,30.14,West,277,0.0,1.0,95,0.00,,,0.03,Wunderground v.1.15,2013-04-24 10:55:00,
2013-04-24 06:00:00,36.3,35.0,30.14,WNW,297,0.0,0.0,95,0.00,,,0.03,Wunderground v.1.15,2013-04-24 11:00:00,
2013-04-24 06:05:00,36.4,34.8,30.14,West,274,0.0,1.0,94,0.00,,,0.03,Wunderground v.1.15,2013-04-24 11:05:00,
2013-04-24 06:10:00,36.4,35.1,30.15,West,274,0.0,1.0,95,0.00,,,0.03,Wunderground v.1.15,2013-04-24 11:10:00,
2013-04-24 06:20:00,36.4,34.8,30.15,WNW,283,1.0,1.0,94,0.00,,,0.03,Wunderground v.1.15,2013-04-24 11:20:00,
2013-04-24 06:25:00,36.5,34.9,30.14,NW,308,1.0,1.0,94,0.00,,,0.03,Wunderground v.1.15,2013-04-24 11:25:00,
2013-04-24 06:35:00,36.6,35.0,30.15,WSW,256,1.0,2.0,94,0.00,,,0.03,Wunderground v.1.15,2013-04-24 11:35:00,
2013-04-24 06:45:00,36.7,35.1,30.15,West,263,1.0,1.0,94,0.00,,,0.03,Wunderground v.1.15,2013-04-24 11:45:00,
2013-04-24 06:50:00,36.8,35.2,30.15,WNW,284,1.0,1.0,94,0.00,,,0.03,Wunderground v.1.15,2013-04-24 11:50:00,
2013-04-24 07:00:00,36.8,35.0,30.15,West,276,2.0,2.0,93,0.00,,,0.03,Wunderground v.1.15,2013-04-24 12:00:00,
2013-04-24 07:10:00,36.9,35.1,30.17,WSW,252,2.0,2.0,93,0.00,,,0.03,Wunderground v.1.15,2013-04-24 12:10:00,
2013-04-24 07:15:00,36.9,35.1,30.17,WSW,250,2.0,4.0,93,0.00,,,0.03,Wunderground v.1.15,2013-04-24 12:15:00,
2013-04-24 07:20:00,36.9,35.1,30.16,WNW,286,2.0,2.0,93,0.00,,,0.03,Wunderground v.1.15,2013-04-24 12:20:00,
2013-04-24 07:30:00,37.0,34.9,30.16,NW,311,2.0,6.0,92,0.00,,,0.03,Wunderground v.1.15,2013-04-24 12:30:00,
2013-04-24 07:40:00,37.1,34.4,30.16,WNW,286,3.0,3.0,90,0.00,,,0.03,Wunderground v.1.15,2013-04-24 12:40:00,
2013-04-24 07:45:00,37.1,34.7,30.16,WNW,287,3.0,3.0,91,0.00,,,0.03,Wunderground v.1.15,2013-04-24 12:45:00,
2013-04-24 07:55:00,37.2,34.5,30.17,NW,305,2.0,3.0,90,0.00,,,0.03,Wunderground v.1.15,2013-04-24 12:55:00,
2013-04-24 08:00:00,37.3,34.4,30.17,WNW,298,2.0,3.0,89,0.00,,,0.03,Wunderground v.1.15,2013-04-24 13:00:00,
2013-04-24 08:10:00,37.3,33.8,30.18,WNW,302,4.0,4.0,87,0.00,,,0.03,Wunderground v.1.15,2013-04-24 13:10:00,
2013-04-24 08:20:00,37.4,33.9,30.19,WNW,290,4.0,4.0,87,0.00,,,0.03,Wunderground v.1.15,2013-04-24 13:20:00,
2013-04-24 08:25:00,37.4,33.6,30.19,West,271,4.0,6.0,86,0.00,,,0.03,Wunderground v.1.15,2013-04-24 13:25:00,
2013-04-24 08:35:00,37.5,33.7,30.20,SW,218,5.0,6.0,86,0.00,,,0.03,Wunderground v.1.15,2013-04-24 13:35:00,
2013-04-24 08:45:00,37.6,33.5,30.20,WNW,283,5.0,5.0,85,0.00,,,0.03,Wunderground v.1.15,2013-04-24 13:45:00,
2013-04-24 08:50:00,37.7,33.3,30.20,WNW,302,4.0,4.0,84,0.00,,,0.03,Wunderground v.1.15,2013-04-24 13:50:00,
2013-04-24 09:00:00,38.0,33.3,30.20,WNW,295,4.0,9.0,83,0.00,,,0.03,Wunderground v.1.15,2013-04-24 14:00:00,
2013-04-24 09:10:00,38.5,33.8,30.21,WNW,297,3.0,3.0,83,0.00,,,0.03,Wunderground v.1.15,2013-04-24 14:10:00,
2013-04-24 09:15:00,38.7,33.7,30.21,WNW,297,3.0,5.0,82,0.00,,,0.03,Wunderground v.1.15,2013-04-24 14:15:00,
2013-04-24 09:25:00,39.3,34.0,30.21,WNW,284,4.0,4.0,81,0.00,,,0.03,Wunderground v.1.15,2013-04-24 14:25:00,
2013-04-24 09:35:00,39.5,34.5,30.21,West,273,4.0,4.0,82,0.00,,,0.03,Wunderground v.1.15,2013-04-24 14:35:00,
2013-04-24 09:45:00,39.5,33.5,30.21,WNW,302,5.0,8.0,79,0.00,,,0.03,Wunderground v.1.15,2013-04-24 14:45:00,
2013-04-24 09:55:00,40.1,34.4,30.21,NW,308,5.0,6.0,80,0.00,,,0.03,Wunderground v.1.15,2013-04-24 14:55:00,
2013-04-24 10:00:00,40.3,34.9,30.22,WNW,295,4.0,4.0,81,0.00,,,0.03,Wunderground v.1.15,2013-04-24 15:00:00,
2013-04-24 10:10:00,40.5,34.2,30.22,NW,307,5.0,5.0,78,0.00,,,0.03,Wunderground v.1.15,2013-04-24 15:10:00,
2013-04-24 10:20:00,40.9,33.9,30.22,WNW,291,4.0,4.0,76,0.00,,,0.03,Wunderground v.1.15,2013-04-24 15:20:00,
2013-04-24 10:25:00,41.2,33.5,30.22,WNW,291,4.0,5.0,74,0.00,,,0.03,Wunderground v.1.15,2013-04-24 15:25:00,
2013-04-24 10:35:00,41.4,34.4,30.22,North,353,5.0,5.0,76,0.00,,,0.03,Wunderground v.1.15,2013-04-24 15:35:00,
2013-04-24 10:40:00,41.5,34.2,30.22,NW,322,4.0,11.0,75,0.00,,,0.03,Wunderground v.1.15,2013-04-24 15:40:00,
2013-04-24 10:50:00,42.4,34.4,30.22,West,274,4.0,7.0,73,0.00,,,0.03,Wunderground v.1.15,2013-04-24 15:50:00,
2013-04-24 10:55:00,42.7,33.6,30.22,WNW,287,4.0,7.0,70,0.00,,,0.03,Wunderground v.1.15,2013-04-24 15:55:00,
2013-04-24 11:00:00,43.0,33.9,30.22,WNW,302,4.0,6.0,70,0.00,,,0.03,Wunderground v.1.15,2013-04-24 16:00:00,
2013-04-24 11:10:00,42.5,32.7,30.22,WNW,284,5.0,5.0,68,0.00,,,0.03,Wunderground v.1.15,2013-04-24 16:10:00,
2013-04-24 11:15:00,43.0,30.9,30.22,WSW,256,4.0,6.0,62,0.00,,,0.03,Wunderground v.1.15,2013-04-24 16:15:00,
2013-04-24 11:25:00,43.1,31.7,30.22,WNW,302,5.0,5.0,64,0.00,,,0.03,Wunderground v.1.15,2013-04-24 16:25:00,
2013-04-24 11:35:00,42.5,30.8,30.23,WNW,288,5.0,5.0,63,0.00,,,0.03,Wunderground v.1.15,2013-04-24 16:35:00,
2013-04-24 11:40:00,42.9,31.6,30.23,WNW,302,5.0,5.0,64,0.00,,,0.03,Wunderground v.1.15,2013-04-24 16:40:00,
2013-04-24 11:50:00,42.9,31.6,30.23,NW,304,4.0,4.0,64,0.00,,,0.03,Wunderground v.1.15,2013-04-24 16:50:00,
2013-04-24 12:00:00,43.1,30.6,30.23,West,278,5.0,5.0,61,0.00,,,0.03,Wunderground v.1.15,2013-04-24 17:00:00,
2013-04-24 12:10:00,44.0,31.4,30.23,NW,316,5.0,5.0,61,0.00,,,0.03,Wunderground v.1.15,2013-04-24 17:10:00,
2013-04-24 12:15:00,44.1,31.5,30.23,NW,304,4.0,7.0,61,0.00,,,0.03,Wunderground v.1.15,2013-04-24 17:15:00,
2013-04-24 12:25:00,44.3,32.1,30.23,WNW,302,4.0,6.0,62,0.00,,,0.03,Wunderground v.1.15,2013-04-24 17:25:00,
2013-04-24 12:30:00,44.3,31.3,30.23,West,269,4.0,8.0,60,0.00,,,0.03,Wunderground v.1.15,2013-04-24 17:30:00,
2013-04-24 12:40:00,43.8,30.4,30.24,WSW,248,5.0,5.0,59,0.00,,,0.03,Wunderground v.1.15,2013-04-24 17:40:00,
2013-04-24 12:50:00,44.1,30.7,30.24,WNW,295,5.0,10.0,59,0.00,,,0.03,Wunderground v.1.15,2013-04-24 17:50:00,
2013-04-24 13:00:00,44.8,31.3,30.24,West,262,4.0,5.0,59,0.00,,,0.03,Wunderground v.1.15,2013-04-24 18:00:00,
2013-04-24 13:10:00,45.3,31.0,30.24,WSW,255,4.0,5.0,57,0.00,,,0.03,Wunderground v.1.15,2013-04-24 18:10:00,
2013-04-24 13:15:00,44.8,30.9,30.24,West,269,4.0,5.0,58,0.00,,,0.03,Wunderground v.1.15,2013-04-24 18:15:00,
2013-04-24 13:25:00,45.4,30.6,30.23,WNW,283,5.0,5.0,56,0.00,,,0.03,Wunderground v.1.15,2013-04-24 18:25:00,
2013-04-24 13:35:00,45.1,29.4,30.24,WNW,286,5.0,7.0,54,0.00,,,0.03,Wunderground v.1.15,2013-04-24 18:35:00,
2013-04-24 13:40:00,45.7,30.9,30.24,WSW,241,5.0,8.0,56,0.00,,,0.03,Wunderground v.1.15,2013-04-24 18:40:00,
2013-04-24 13:45:00,45.9,31.1,30.24,West,271,4.0,8.0,56,0.00,,,0.03,Wunderground v.1.15,2013-04-24 18:45:00,
2013-04-24 13:55:00,46.1,31.3,30.24,West,273,3.0,4.0,56,0.00,,,0.03,Wunderground v.1.15,2013-04-24 18:55:00,
2013-04-24 14:00:00,46.3,31.0,30.24,WSW,243,4.0,6.0,55,0.00,,,0.03,Wunderground v.1.15,2013-04-24 19:00:00,
2013-04-24 14:10:00,46.8,32.4,30.24,SSW,212,5.0,6.0,57,0.00,,,0.03,Wunderground v.1.15,2013-04-24 19:10:00,
2013-04-24 14:20:00,47.5,31.2,30.24,WNW,286,4.0,4.0,53,0.00,,,0.03,Wunderground v.1.15,2013-04-24 19:20:00,
2013-04-24 14:30:00,46.9,31.6,30.23,West,276,4.0,4.0,55,0.00,,,0.03,Wunderground v.1.15,2013-04-24 19:30:00,
2013-04-24 14:35:00,47.6,32.2,30.23,NW,304,4.0,4.0,55,0.00,,,0.03,Wunderground v.1.15,2013-04-24 19:35:00,
2013-04-24 14:45:00,47.5,31.2,30.24,WNW,292,3.0,5.0,53,0.00,,,0.03,Wunderground v.1.15,2013-04-24 19:45:00,
2013-04-24 14:50:00,47.8,31.9,30.24,SW,229,4.0,4.0,54,0.00,,,0.03,Wunderground v.1.15,2013-04-24 19:50:00,
2013-04-24 14:55:00,47.8,30.5,30.24,WSW,240,4.0,6.0,51,0.00,,,0.03,Wunderground v.1.15,2013-04-24 19:55:00,
2013-04-24 15:00:00,48.3,31.5,30.24,NW,311,4.0,7.0,52,0.00,,,0.03,Wunderground v.1.15,2013-04-24 20:00:00,
2013-04-24 15:10:00,48.4,31.6,30.24,West,281,4.0,4.0,52,0.00,,,0.03,Wunderground v.1.15,2013-04-24 20:10:00,
2013-04-24 15:20:00,48.0,31.7,30.24,NW,304,3.0,3.0,53,0.00,,,0.03,Wunderground v.1.15,2013-04-24 20:20:00,
2013-04-24 15:30:00,47.9,32.9,30.23,WSW,249,3.0,3.0,56,0.00,,,0.03,Wunderground v.1.15,2013-04-24 20:30:00,
2013-04-24 15:40:00,48.2,30.9,30.23,WSW,239,4.0,4.0,51,0.00,,,0.03,Wunderground v.1.15,2013-04-24 20:40:00,
2013-04-24 15:45:00,48.5,30.7,30.23,West,280,3.0,5.0,50,0.00,,,0.03,Wunderground v.1.15,2013-04-24 20:45:00,
2013-04-24 15:55:00,48.9,32.0,30.23,NW,305,4.0,7.0,52,0.00,,,0.03,Wunderground v.1.15,2013-04-24 20:55:00,
2013-04-24 16:00:00,49.1,30.7,30.23,WSW,253,4.0,4.0,49,0.00,,,0.03,Wunderground v.1.15,2013-04-24 21:00:00,
2013-04-24 16:10:00,48.9,32.0,30.23,WNW,302,4.0,4.0,52,0.00,,,0.03,Wunderground v.1.15,2013-04-24 21:10:00,
2013-04-24 16:15:00,48.9,31.5,30.23,West,277,3.0,4.0,51,0.00,,,0.03,Wunderground v.1.15,2013-04-24 21:15:00,
2013-04-24 16:25:00,49.8,30.9,30.23,SW,222,4.0,5.0,48,0.00,,,0.03,Wunderground v.1.15,2013-04-24 21:25:00,
2013-04-24 16:35:00,50.0,31.6,30.23,SW,218,5.0,10.0,49,0.00,,,0.03,Wunderground v.1.15,2013-04-24 21:35:00,
2013-04-24 16:45:00,50.3,32.8,30.23,WSW,242,5.0,11.0,51,0.00,,,0.03,Wunderground v.1.15,2013-04-24 21:45:00,
2013-04-24 16:55:00,50.6,32.1,30.24,WSW,253,5.0,7.0,49,0.00,,,0.03,Wunderground v.1.15,2013-04-24 21:55:00,
2013-04-24 17:00:00,50.5,32.0,30.24,West,262,5.0,5.0,49,0.00,,,0.03,Wunderground v.1.15,2013-04-24 22:00:00,
2013-04-24 17:10:00,50.6,31.6,30.24,SSW,212,6.0,6.0,48,0.00,,,0.03,Wunderground v.1.15,2013-04-24 22:10:00,
2013-04-24 17:20:00,50.6,32.1,30.24,West,262,6.0,6.0,49,0.00,,,0.03,Wunderground v.1.15,2013-04-24 22:20:00,
2013-04-24 17:25:00,50.8,30.2,30.24,WSW,255,5.0,9.0,45,0.00,,,0.03,Wunderground v.1.15,2013-04-24 22:25:00,
2013-04-24 17:35:00,50.7,31.7,30.24,SW,229,6.0,10.0,48,0.00,,,0.03,Wunderground v.1.15,2013-04-24 22:35:00,
2013-04-24 17:45:00,50.4,31.4,30.24,SW,225,6.0,6.0,48,0.00,,,0.03,Wunderground v.1.15,2013-04-24 22:45:00,
2013-04-24 17:50:00,50.5,31.5,30.24,WSW,256,6.0,6.0,48,0.00,,,0.03,Wunderground v.1.15,2013-04-24 22:50:00,
2013-04-24 18:00:00,50.6,32.1,30.24,West,264,6.0,6.0,49,0.00,,,0.03,Wunderground v.1.15,2013-04-24 23:00:00,
2013-04-24 18:10:00,50.6,30.6,30.24,West,279,5.0,5.0,46,0.00,,,0.03,Wunderground v.1.15,2013-04-24 23:10:00,
2013-04-24 18:20:00,50.3,30.8,30.24,WSW,239,7.0,7.0,47,0.00,,,0.03,Wunderground v.1.15,2013-04-24 23:20:00,
2013-04-24 18:30:00,50.2,31.2,30.24,SW,218,7.0,7.0,48,0.00,,,0.03,Wunderground v.1.15,2013-04-24 23:30:00,
2013-04-24 18:35:00,50.3,30.3,30.24,SW,229,6.0,9.0,46,0.00,,,0.03,Wunderground v.1.15,2013-04-24 23:35:00,
2013-04-24 18:45:00,50.1,30.1,30.24,West,262,7.0,12.0,46,0.00,,,0.03,Wunderground v.1.15,2013-04-24 23:45:00,
2013-04-24 18:55:00,49.8,30.4,30.24,WSW,249,5.0,11.0,47,0.00,,,0.03,Wunderground v.1.15,2013-04-24 23:55:00,
2013-04-24 19:00:00,49.6,30.2,30.24,SW,215,6.0,8.0,47,0.00,,,0.03,Wunderground v.1.15,2013-04-25 00:00:00,
2013-04-24 19:10:00,49.4,30.5,30.23,SW,236,5.0,8.0,48,0.00,,,0.03,Wunderground v.1.15,2013-04-25 00:10:00,
2013-04-24 19:15:00,49.1,30.7,30.24,SW,235,4.0,8.0,49,0.00,,,0.03,Wunderground v.1.15,2013-04-25 00:15:00,
2013-04-24 19:25:00,48.6,31.3,30.24,WSW,256,5.0,6.0,51,0.00,,,0.03,Wunderground v.1.15,2013-04-25 00:25:00,
2013-04-24 19:35:00,48.1,30.8,30.24,WSW,239,5.0,8.0,51,0.00,,,0.03,Wunderground v.1.15,2013-04-25 00:35:00,
2013-04-24 19:40:00,47.9,31.1,30.24,SW,236,5.0,6.0,52,0.00,,,0.03,Wunderground v.1.15,2013-04-25 00:40:00,
2013-04-24 19:50:00,47.5,31.7,30.25,SSW,213,5.0,5.0,54,0.00,,,0.03,Wunderground v.1.15,2013-04-25 00:50:00,
2013-04-24 20:00:00,46.9,32.4,30.25,SW,229,2.0,2.0,57,0.00,,,0.03,Wunderground v.1.15,2013-04-25 01:00:00,
2013-04-24 20:10:00,46.5,32.9,30.25,SSW,201,3.0,3.0,59,0.00,,,0.03,Wunderground v.1.15,2013-04-25 01:10:00,
2013-04-24 20:20:00,45.9,33.6,30.25,SW,222,3.0,4.0,62,0.00,,,0.03,Wunderground v.1.15,2013-04-25 01:20:00,
2013-04-24 20:25:00,45.6,33.7,30.25,SSW,202,2.0,4.0,63,0.00,,,0.03,Wunderground v.1.15,2013-04-25 01:25:00,
2013-04-24 20:35:00,45.2,33.7,30.26,SW,215,2.0,2.0,64,0.00,,,0.03,Wunderground v.1.15,2013-04-25 01:35:00,
2013-04-24 20:40:00,45.0,33.2,30.25,SSW,210,2.0,2.0,63,0.00,,,0.03,Wunderground v.1.15,2013-04-25 01:40:00,
2013-04-24 20:50:00,44.9,32.3,30.25,SW,215,3.0,3.0,61,0.00,,,0.03,Wunderground v.1.15,2013-04-25 01:50:00,
2013-04-24 21:00:00,44.7,31.7,30.26,SSW,204,2.0,3.0,60,0.00,,,0.03,Wunderground v.1.15,2013-04-25 02:00:00,
2013-04-24 21:10:00,44.6,31.6,30.26,SSW,210,3.0,3.0,60,0.00,,,0.03,Wunderground v.1.15,2013-04-25 02:10:00,